Terminal Aerodrome Forecast
Issued by NWS Mt. Holly, NJ

Home | Current Version | Previous Version | Text Only | Print | Product List | Glossary On
Versions: 1 2 3 4 5 6 7 8 9 10 11 12 13 14 15 16 17 18 19 20 21 22 23 24 25 26 27 28 29 30 31 32 33 34 35 36 37 38 39 40 41 42 43 44 45 46 47 48
000
FTUS41 KPHI 012300
TAFABE
TAF
KABE 012333Z 0200/0224 07007KT P6SM SCT028 BKN090
      TEMPO 0200/0202 BKN028 OVC035
     FM020200 08004KT P6SM BKN025
     FM020900 06003KT 5SM BR BKN025
     FM021500 04006KT P6SM SCT025 BKN035=

USA.gov is the U.S. government's official web portal to all federal, state and local government web resources and services.